createdAt,value
2018-08-24T00:01:32.326Z,12.43
2018-08-24T00:03:59.540Z,15.00
2018-08-24T00:06:26.741Z,16.27
2018-08-24T00:08:54.077Z,15.00
2018-08-24T00:11:21.250Z,14.30
2018-08-24T00:13:48.463Z,12.87
2018-08-24T00:16:19.968Z,14.10
2018-08-24T00:18:47.160Z,15.40
2018-08-24T00:21:14.337Z,13.53
2018-08-24T00:23:41.530Z,15.80
2018-08-24T00:26:08.686Z,16.20
2018-08-24T00:28:35.911Z,16.13
2018-08-24T00:31:03.094Z,14.33
2018-08-24T00:33:30.282Z,16.33
2018-08-24T00:35:57.451Z,14.97
2018-08-24T00:38:24.646Z,15.17
2018-08-24T00:40:56.123Z,14.80
2018-08-24T00:43:23.321Z,15.47
2018-08-24T00:45:50.482Z,16.20
2018-08-24T00:48:17.678Z,15.00
2018-08-24T00:50:44.843Z,17.63
2018-08-24T00:53:12.059Z,14.80
2018-08-24T00:55:39.235Z,15.90
2018-08-24T00:58:06.431Z,15.60
2018-08-24T01:00:39.219Z,13.50
2018-08-24T01:03:06.374Z,14.20
2018-08-24T01:05:33.571Z,14.83
2018-08-24T01:08:06.896Z,15.93
2018-08-24T01:10:34.199Z,16.50
2018-08-24T01:13:01.396Z,14.03
2018-08-24T01:15:33.043Z,13.97
2018-08-24T01:18:05.540Z,14.50
2018-08-24T01:20:32.699Z,15.60
2018-08-24T01:22:59.901Z,14.27
2018-08-24T01:25:27.048Z,16.10
2018-08-24T01:27:54.240Z,13.33
2018-08-24T01:30:21.427Z,14.73
2018-08-24T01:32:48.598Z,13.80
2018-08-24T01:35:15.790Z,13.53
2018-08-24T01:37:43.010Z,15.50
2018-08-24T01:40:10.209Z,15.40
2018-08-24T01:42:37.372Z,14.53
2018-08-24T01:45:04.687Z,15.00
2018-08-24T01:47:31.858Z,14.33
2018-08-24T01:49:59.019Z,14.50
2018-08-24T01:52:26.226Z,13.50
2018-08-24T01:54:53.423Z,12.70
2018-08-24T01:57:20.593Z,13.37
2018-08-24T01:59:47.770Z,13.93
2018-08-24T02:02:14.970Z,14.13
2018-08-24T02:04:42.167Z,14.00
2018-08-24T02:07:09.358Z,13.80
2018-08-24T02:09:36.540Z,14.13
2018-08-24T02:12:03.758Z,16.13
2018-08-24T02:14:36.631Z,13.80
2018-08-24T02:17:03.723Z,14.90
2018-08-24T02:19:36.468Z,17.40
2018-08-24T02:22:09.223Z,15.73
2018-08-24T02:24:36.399Z,14.20
2018-08-24T02:27:03.620Z,17.20
2018-08-24T02:29:30.798Z,14.53
2018-08-24T02:31:57.972Z,16.30
2018-08-24T02:34:25.217Z,18.13
2018-08-24T02:36:52.380Z,18.57
2018-08-24T02:39:19.940Z,17.87
2018-08-24T02:41:47.124Z,17.73
2018-08-24T02:44:14.451Z,17.83
2018-08-24T02:46:42.505Z,19.57
2018-08-24T02:49:09.878Z,18.33
2018-08-24T02:51:37.064Z,18.57
2018-08-24T02:54:04.428Z,19.20
2018-08-24T02:56:31.616Z,18.33
2018-08-24T02:58:58.844Z,17.73
2018-08-24T03:01:26.059Z,15.77
2018-08-24T03:03:53.260Z,17.40
2018-08-24T03:06:20.439Z,19.00
2018-08-24T03:08:47.635Z,19.10
2018-08-24T03:11:14.803Z,19.03
2018-08-24T03:13:42.023Z,15.90
2018-08-24T03:16:09.537Z,17.50
2018-08-24T03:18:36.849Z,17.30
2018-08-24T03:21:04.038Z,15.70
2018-08-24T03:23:31.211Z,17.70
2018-08-24T03:25:58.410Z,15.07
2018-08-24T03:28:25.591Z,16.23
2018-08-24T03:30:52.787Z,15.80
2018-08-24T03:33:19.972Z,14.60
2018-08-24T03:35:47.180Z,17.63
2018-08-24T03:38:14.375Z,18.23
2018-08-24T03:40:41.545Z,16.40
2018-08-24T03:43:08.735Z,16.90
2018-08-24T03:45:35.907Z,14.73
2018-08-24T03:48:03.095Z,14.90
2018-08-24T03:50:30.267Z,15.77
2018-08-24T03:52:57.523Z,15.53
2018-08-24T03:55:24.706Z,18.50
2018-08-24T03:57:51.863Z,14.13
2018-08-24T04:00:19.052Z,13.53
2018-08-24T04:02:46.836Z,12.90
2018-08-24T04:05:14.430Z,13.63
2018-08-24T04:07:42.700Z,13.23
2018-08-24T04:10:09.902Z,14.13
2018-08-24T04:12:37.132Z,13.40
2018-08-24T04:15:04.314Z,11.37
2018-08-24T04:17:37.018Z,10.67
2018-08-24T04:20:04.233Z,12.67
2018-08-24T04:22:31.437Z,10.33
2018-08-24T04:24:58.603Z,8.93
2018-08-24T04:27:25.808Z,8.60
2018-08-24T04:29:52.971Z,9.23
2018-08-24T04:32:20.160Z,8.20
2018-08-24T04:34:47.331Z,9.17
2018-08-24T04:37:14.542Z,9.10
2018-08-24T04:39:41.699Z,8.97
2018-08-24T04:42:08.952Z,9.03
2018-08-24T04:44:36.107Z,8.10
2018-08-24T04:47:03.312Z,8.20
2018-08-24T04:49:30.499Z,7.77
2018-08-24T04:51:57.678Z,9.13
2018-08-24T04:54:24.875Z,8.53
2018-08-24T04:56:52.047Z,8.63
2018-08-24T04:59:19.230Z,8.30
2018-08-24T05:01:46.395Z,6.73
2018-08-24T05:04:13.574Z,7.20
2018-08-24T05:06:40.773Z,7.87
2018-08-24T05:09:08.612Z,7.70
2018-08-24T05:11:36.259Z,7.27
2018-08-24T05:14:03.460Z,8.83
2018-08-24T05:16:30.635Z,7.70
2018-08-24T05:18:57.838Z,8.30
2018-08-24T05:21:25.030Z,8.57
2018-08-24T05:23:52.222Z,7.40
2018-08-24T05:26:19.427Z,7.90
2018-08-24T05:28:46.621Z,7.83
2018-08-24T05:31:13.811Z,8.00
2018-08-24T05:33:41.015Z,7.40
2018-08-24T05:36:08.195Z,6.93
2018-08-24T05:38:35.350Z,5.77
2018-08-24T05:41:02.534Z,6.00
2018-08-24T05:43:29.755Z,4.80
2018-08-24T05:45:56.910Z,5.63
2018-08-24T05:48:24.267Z,4.53
2018-08-24T05:50:51.439Z,3.80
2018-08-24T05:53:18.622Z,3.10
2018-08-24T05:55:45.808Z,3.30
2018-08-24T05:58:13.148Z,3.13
2018-08-24T06:00:41.888Z,3.60
2018-08-24T06:03:09.719Z,3.17
2018-08-24T06:05:41.257Z,2.47
2018-08-24T06:08:08.535Z,2.77
2018-08-24T06:10:35.719Z,2.10
2018-08-24T06:13:02.902Z,2.30
2018-08-24T06:15:30.071Z,1.93
2018-08-24T06:17:57.874Z,2.27
2018-08-24T06:20:25.067Z,2.10
2018-08-24T06:22:52.455Z,2.20
2018-08-24T06:25:19.623Z,1.77
2018-08-24T06:27:47.117Z,2.17
2018-08-24T06:30:14.291Z,2.23
2018-08-24T06:32:42.165Z,2.00
2018-08-24T06:35:10.390Z,2.10
2018-08-24T06:37:37.734Z,1.90
2018-08-24T06:40:05.059Z,1.73
2018-08-24T06:42:32.236Z,1.60
2018-08-24T06:44:59.437Z,1.70
2018-08-24T06:47:26.838Z,1.60
2018-08-24T06:49:53.883Z,3.53
2018-08-24T06:52:21.408Z,1.80
2018-08-24T06:54:48.722Z,1.90
2018-08-24T06:57:16.055Z,1.77
2018-08-24T06:59:43.340Z,1.83
2018-08-24T07:02:10.406Z,2.27
2018-08-24T07:04:37.559Z,2.07
2018-08-24T07:07:04.748Z,1.50
2018-08-24T07:09:31.918Z,2.10
2018-08-24T07:11:59.070Z,2.00
2018-08-24T07:14:26.280Z,2.30
2018-08-24T07:16:58.589Z,2.30
2018-08-24T07:19:25.953Z,1.70
2018-08-24T07:21:53.175Z,2.20
2018-08-24T07:24:20.330Z,2.40
2018-08-24T07:26:47.490Z,2.77
2018-08-24T07:29:14.680Z,2.77
2018-08-24T07:31:41.827Z,2.40
2018-08-24T07:34:08.999Z,2.73
2018-08-24T07:36:36.170Z,2.50
2018-08-24T07:39:04.488Z,2.37
2018-08-24T07:41:31.868Z,2.60
2018-08-24T07:43:59.255Z,3.10
2018-08-24T07:46:26.418Z,2.87
2018-08-24T07:48:53.735Z,2.57
2018-08-24T07:51:20.942Z,2.87
2018-08-24T07:53:48.119Z,2.70
2018-08-24T07:56:15.271Z,2.67
2018-08-24T07:58:42.471Z,2.97
2018-08-24T08:01:09.967Z,3.03
2018-08-24T08:03:37.411Z,3.30
2018-08-24T08:06:04.655Z,3.27
2018-08-24T08:08:31.808Z,3.30
2018-08-24T08:10:58.993Z,3.33
2018-08-24T08:13:26.137Z,3.13
2018-08-24T08:15:53.324Z,3.50
2018-08-24T08:18:20.540Z,3.50
2018-08-24T08:20:47.678Z,3.33
2018-08-24T08:23:14.853Z,3.27
2018-08-24T08:25:42.010Z,3.00
2018-08-24T08:28:09.158Z,3.40
2018-08-24T08:30:36.322Z,3.77
2018-08-24T08:33:03.520Z,3.40
2018-08-24T08:35:30.658Z,3.10
2018-08-24T08:37:57.837Z,4.10
2018-08-24T08:40:24.991Z,4.53
2018-08-24T08:42:52.170Z,3.97
2018-08-24T08:45:19.322Z,4.40
2018-08-24T08:47:46.500Z,4.37
2018-08-24T08:50:13.642Z,4.50
2018-08-24T08:52:40.851Z,4.93
2018-08-24T08:55:07.994Z,4.90
2018-08-24T08:57:35.158Z,4.60
2018-08-24T09:00:09.549Z,5.30
2018-08-24T09:02:37.061Z,5.20
2018-08-24T09:05:04.250Z,5.00
2018-08-24T09:07:31.403Z,5.90
2018-08-24T09:09:58.586Z,6.07
2018-08-24T09:12:25.727Z,4.97
2018-08-24T09:14:52.924Z,6.13
2018-08-24T09:17:25.650Z,4.60
2018-08-24T09:19:58.214Z,5.80
2018-08-24T09:22:30.915Z,5.27
2018-08-24T09:25:03.707Z,5.70
2018-08-24T09:27:35.359Z,5.40
2018-08-24T09:30:04.200Z,5.20
2018-08-24T09:32:31.527Z,6.10
2018-08-24T09:34:58.691Z,5.20
2018-08-24T09:37:31.437Z,5.77
2018-08-24T09:39:58.584Z,5.73
2018-08-24T09:42:25.769Z,5.97
2018-08-24T09:44:52.942Z,6.20
2018-08-24T09:47:25.543Z,5.40
2018-08-24T09:49:52.692Z,5.70
2018-08-24T09:52:25.486Z,5.47
2018-08-24T09:54:52.646Z,6.03
2018-08-24T09:57:20.000Z,6.20
2018-08-24T09:59:47.159Z,5.83
2018-08-24T10:02:19.906Z,6.00
2018-08-24T10:04:52.459Z,5.87
2018-08-24T10:08:29.191Z,5.40
2018-08-24T10:10:56.342Z,5.93
2018-08-24T10:13:23.621Z,6.27
2018-08-24T10:15:50.712Z,7.30
2018-08-24T10:18:17.873Z,6.50
2018-08-24T10:20:45.052Z,6.60
2018-08-24T10:23:12.281Z,6.70
2018-08-24T10:25:39.391Z,7.20
2018-08-24T10:28:06.670Z,6.93
2018-08-24T10:30:33.851Z,7.00
2018-08-24T10:33:00.994Z,6.40
2018-08-24T10:35:28.175Z,7.07
2018-08-24T10:37:55.351Z,6.90
2018-08-24T10:40:22.639Z,6.00
2018-08-24T10:42:49.993Z,6.67
2018-08-24T10:45:17.179Z,6.33
2018-08-24T10:47:44.328Z,6.47
2018-08-24T10:50:11.471Z,6.20
2018-08-24T10:52:38.638Z,5.47
2018-08-24T10:55:05.831Z,6.40
2018-08-24T10:57:33.023Z,6.00
2018-08-24T11:00:00.158Z,6.20
2018-08-24T11:02:27.330Z,6.37
2018-08-24T11:04:54.489Z,5.90
2018-08-24T11:07:21.781Z,5.90
2018-08-24T11:09:48.825Z,5.80
2018-08-24T11:12:16.013Z,5.87
2018-08-24T11:14:43.167Z,5.50
2018-08-24T11:17:10.319Z,5.40
2018-08-24T11:19:37.503Z,5.43
2018-08-24T11:22:04.670Z,5.43
2018-08-24T11:24:31.839Z,5.00
2018-08-24T11:26:59.046Z,5.20
2018-08-24T11:29:26.265Z,5.40
2018-08-24T11:31:53.314Z,5.23
2018-08-24T11:34:20.495Z,5.10
2018-08-24T11:36:47.643Z,4.30
2018-08-24T11:39:14.825Z,5.70
2018-08-24T11:41:41.971Z,4.90
2018-08-24T11:44:09.114Z,4.90
2018-08-24T11:46:36.284Z,4.90
2018-08-24T11:49:03.429Z,4.33
2018-08-24T11:51:30.605Z,5.23
2018-08-24T11:53:57.816Z,4.73
2018-08-24T11:56:24.934Z,4.70
2018-08-24T11:58:52.116Z,5.40
2018-08-24T12:01:19.302Z,4.67
2018-08-24T12:06:20.314Z,4.73
2018-08-24T12:08:47.466Z,4.30
2018-08-24T12:11:14.619Z,4.53
2018-08-24T12:13:41.861Z,4.73
2018-08-24T12:16:08.970Z,4.03
2018-08-24T12:18:36.131Z,3.80
2018-08-24T12:21:03.359Z,4.37
2018-08-24T12:23:30.484Z,3.90
2018-08-24T12:25:57.696Z,4.30
2018-08-24T12:28:24.838Z,4.63
2018-08-24T12:30:52.025Z,4.00
2018-08-24T12:33:19.191Z,4.37
2018-08-24T12:35:46.335Z,4.10
2018-08-24T12:38:13.630Z,4.23
2018-08-24T12:40:40.686Z,4.43
2018-08-24T12:43:07.887Z,3.97
2018-08-24T12:45:35.039Z,4.23
2018-08-24T12:48:02.203Z,4.10
2018-08-24T12:50:29.365Z,4.20
2018-08-24T12:52:56.566Z,3.60
2018-08-24T12:55:23.742Z,4.13
2018-08-24T12:57:50.892Z,3.80
2018-08-24T13:00:18.062Z,3.40
2018-08-24T13:02:45.235Z,3.57
2018-08-24T13:05:12.390Z,3.40
2018-08-24T13:07:39.566Z,4.23
2018-08-24T13:10:06.734Z,4.17
2018-08-24T13:12:33.907Z,3.90
2018-08-24T13:15:01.063Z,4.03
2018-08-24T13:17:28.235Z,4.37
2018-08-24T13:19:55.392Z,3.93
2018-08-24T13:22:22.706Z,4.07
2018-08-24T13:24:49.850Z,4.37
2018-08-24T13:27:17.037Z,3.87
2018-08-24T13:29:44.183Z,4.03
2018-08-24T13:32:11.411Z,4.10
2018-08-24T13:34:38.659Z,3.70
2018-08-24T13:37:06.014Z,3.93
2018-08-24T13:39:33.175Z,3.83
2018-08-24T13:42:01.859Z,4.00
2018-08-24T13:44:29.019Z,4.60
2018-08-24T13:46:56.186Z,4.10
2018-08-24T13:49:23.367Z,4.80
2018-08-24T13:51:50.519Z,3.63
2018-08-24T13:54:17.703Z,3.40
2018-08-24T13:56:45.234Z,4.10
2018-08-24T13:59:12.660Z,3.53
2018-08-24T14:01:39.867Z,3.53
2018-08-24T14:04:07.374Z,4.23
2018-08-24T14:06:34.519Z,3.33
2018-08-24T14:09:01.670Z,3.30
2018-08-24T14:11:28.853Z,4.23
2018-08-24T14:13:56.002Z,3.70
2018-08-24T14:16:23.167Z,3.80
2018-08-24T14:18:50.352Z,3.87
2018-08-24T14:21:17.501Z,3.70
2018-08-24T14:23:44.659Z,3.93
2018-08-24T14:26:11.833Z,3.60
2018-08-24T14:28:39.014Z,3.87
2018-08-24T14:31:06.198Z,4.10
2018-08-24T14:33:33.370Z,4.13
2018-08-24T14:36:00.549Z,3.80
2018-08-24T14:38:27.811Z,4.23
2018-08-24T14:40:54.986Z,3.90
2018-08-24T14:43:22.366Z,4.77
2018-08-24T14:45:49.565Z,3.47
2018-08-24T14:48:16.824Z,4.10
2018-08-24T14:50:43.909Z,3.97
2018-08-24T14:53:11.130Z,4.40
2018-08-24T14:55:38.297Z,4.03
2018-08-24T14:58:05.443Z,4.20
2018-08-24T15:00:32.619Z,3.80
2018-08-24T15:02:59.767Z,4.30
2018-08-24T15:05:26.935Z,3.67
2018-08-24T15:07:54.112Z,4.30
2018-08-24T15:10:21.255Z,4.40
2018-08-24T15:12:48.427Z,3.90
2018-08-24T15:15:15.612Z,3.80
2018-08-24T15:17:42.790Z,4.33
2018-08-24T15:20:09.956Z,4.10
2018-08-24T15:22:37.197Z,4.47
2018-08-24T15:25:04.558Z,3.77
2018-08-24T15:27:31.721Z,4.00
2018-08-24T15:29:58.959Z,3.53
2018-08-24T15:32:26.066Z,3.80
2018-08-24T15:34:53.286Z,3.67
2018-08-24T15:37:20.819Z,3.90
2018-08-24T15:39:47.966Z,3.80
2018-08-24T15:42:15.143Z,3.57
2018-08-24T15:44:42.462Z,3.47
2018-08-24T15:47:09.667Z,3.70
2018-08-24T15:49:36.817Z,3.10
2018-08-24T15:52:03.978Z,3.70
2018-08-24T15:54:31.216Z,3.63
2018-08-24T15:56:58.349Z,3.83
2018-08-24T15:59:25.699Z,3.90
2018-08-24T16:01:52.846Z,3.67
2018-08-24T16:04:20.517Z,3.20
2018-08-24T16:06:47.692Z,4.17
2018-08-24T16:09:14.997Z,3.43
2018-08-24T16:11:42.147Z,3.90
2018-08-24T16:14:09.411Z,3.33
2018-08-24T16:16:36.686Z,4.17
2018-08-24T16:19:03.811Z,3.80
2018-08-24T16:21:30.982Z,2.93
2018-08-24T16:23:58.157Z,3.00
2018-08-24T16:26:25.904Z,3.20
2018-08-24T16:28:53.550Z,2.97
2018-08-24T16:31:20.772Z,2.80
2018-08-24T16:33:47.925Z,2.80
2018-08-24T16:36:15.510Z,3.20
2018-08-24T16:38:42.676Z,3.00
2018-08-24T16:41:09.868Z,3.03
2018-08-24T16:43:37.108Z,3.00
2018-08-24T16:46:04.264Z,3.13
2018-08-24T16:48:31.448Z,3.40
2018-08-24T16:50:58.595Z,2.93
2018-08-24T16:53:25.739Z,3.53
2018-08-24T16:55:52.928Z,2.70
2018-08-24T16:58:20.131Z,2.60
2018-08-24T17:00:47.302Z,3.00
2018-08-24T17:03:14.463Z,3.00
2018-08-24T17:05:41.662Z,3.03
2018-08-24T17:08:08.806Z,3.10
2018-08-24T17:10:36.002Z,3.17
2018-08-24T17:13:03.183Z,2.40
2018-08-24T17:15:30.362Z,3.27
2018-08-24T17:17:57.531Z,2.50
2018-08-24T17:20:24.702Z,2.60
2018-08-24T17:22:51.884Z,2.77
2018-08-24T17:25:19.034Z,2.90
2018-08-24T17:27:46.232Z,2.70
2018-08-24T17:30:13.397Z,2.70
2018-08-24T17:32:40.551Z,2.73
2018-08-24T17:35:07.872Z,3.13
2018-08-24T17:37:35.302Z,3.00
2018-08-24T17:40:02.478Z,2.40
2018-08-24T17:42:29.667Z,2.20
2018-08-24T17:44:56.811Z,2.90
2018-08-24T17:47:23.960Z,2.40
2018-08-24T17:49:51.131Z,2.67
2018-08-24T17:52:18.286Z,2.57
2018-08-24T17:54:45.463Z,2.70
2018-08-24T17:57:12.635Z,2.50
2018-08-24T17:59:39.816Z,2.60
2018-08-24T18:02:06.987Z,2.30
2018-08-24T18:04:34.184Z,2.63
2018-08-24T18:07:01.362Z,2.77
2018-08-24T18:09:28.546Z,2.40
2018-08-24T18:11:55.759Z,2.17
2018-08-24T18:14:22.916Z,2.20
2018-08-24T18:16:50.109Z,2.10
2018-08-24T18:19:17.268Z,2.33
2018-08-24T18:21:44.414Z,2.33
2018-08-24T18:24:11.606Z,2.30
2018-08-24T18:26:38.771Z,2.00
2018-08-24T18:29:05.958Z,2.03
2018-08-24T18:31:33.115Z,2.13
2018-08-24T18:34:00.306Z,2.10
2018-08-24T18:36:27.497Z,2.10
2018-08-24T18:38:54.660Z,1.90
2018-08-24T18:41:21.830Z,1.67
2018-08-24T18:43:49.207Z,2.20
2018-08-24T18:46:16.435Z,2.00
2018-08-24T18:48:43.739Z,2.40
2018-08-24T18:51:10.819Z,2.40
2018-08-24T18:53:37.976Z,2.20
2018-08-24T18:56:05.140Z,2.07
2018-08-24T18:58:32.319Z,1.77
2018-08-24T19:00:59.466Z,1.90
2018-08-24T19:03:26.648Z,2.03
2018-08-24T19:05:53.807Z,2.43
2018-08-24T19:08:20.991Z,2.70
2018-08-24T19:10:53.818Z,2.00
2018-08-24T19:13:20.998Z,2.07
2018-08-24T19:15:48.331Z,2.40
2018-08-24T19:18:21.121Z,2.10
2018-08-24T19:20:53.671Z,2.00
2018-08-24T19:23:20.813Z,2.20
2018-08-24T19:25:47.982Z,2.20
2018-08-24T19:28:21.539Z,2.53
2018-08-24T19:30:48.738Z,2.30
2018-08-24T19:33:15.915Z,1.73
2018-08-24T19:35:43.103Z,2.50
2018-08-24T19:38:10.318Z,2.17
2018-08-24T19:40:42.909Z,2.43
2018-08-24T19:43:10.119Z,2.20
2018-08-24T19:45:39.282Z,2.40
2018-08-24T19:48:12.112Z,2.07
2018-08-24T19:50:42.236Z,2.03
2018-08-24T19:53:09.479Z,2.30
2018-08-24T19:55:40.778Z,2.40
2018-08-24T19:58:13.544Z,2.63
2018-08-24T20:00:41.747Z,2.30
2018-08-24T20:03:08.883Z,2.13
2018-08-24T20:05:36.148Z,2.30
2018-08-24T20:08:08.810Z,2.00
2018-08-24T20:10:36.045Z,2.03
2018-08-24T20:13:03.348Z,1.87
2018-08-24T20:15:36.099Z,1.90
2018-08-24T20:18:03.281Z,2.27
2018-08-24T20:20:31.320Z,2.20
2018-08-24T20:22:58.535Z,1.97
2018-08-24T20:25:25.727Z,1.73
2018-08-24T20:27:54.462Z,2.10
2018-08-24T20:30:21.904Z,2.00
2018-08-24T20:32:49.082Z,2.00
2018-08-24T20:35:17.193Z,2.57
2018-08-24T20:37:44.367Z,2.20
2018-08-24T20:40:11.620Z,2.23
2018-08-24T20:42:38.795Z,1.93
2018-08-24T20:45:06.040Z,2.20
2018-08-24T20:47:33.210Z,2.00
2018-08-24T20:50:00.385Z,2.00
2018-08-24T20:52:27.561Z,1.87
2018-08-24T20:54:54.732Z,2.20
2018-08-24T20:57:21.887Z,1.93
2018-08-24T20:59:49.301Z,2.17
2018-08-24T21:02:16.487Z,2.00
2018-08-24T21:04:43.687Z,2.20
2018-08-24T21:07:10.862Z,2.30
2018-08-24T21:09:38.071Z,1.90
2018-08-24T21:12:05.343Z,2.00
2018-08-24T21:14:32.618Z,2.33
2018-08-24T21:16:59.868Z,2.10
2018-08-24T21:19:27.086Z,2.37
2018-08-24T21:21:54.278Z,2.43
2018-08-24T21:24:21.478Z,2.50
2018-08-24T21:26:48.762Z,1.93
2018-08-24T21:29:16.225Z,2.40
2018-08-24T21:31:43.215Z,2.50
2018-08-24T21:34:10.392Z,2.20
2018-08-24T21:36:37.546Z,2.40
2018-08-24T21:39:07.075Z,2.10
2018-08-24T21:41:34.227Z,2.30
2018-08-24T21:44:01.396Z,1.90
2018-08-24T21:46:28.615Z,2.60
2018-08-24T21:48:55.813Z,2.70
2018-08-24T21:51:22.959Z,2.23
2018-08-24T21:53:50.124Z,2.53
2018-08-24T21:56:17.476Z,2.23
2018-08-24T21:58:44.684Z,2.40
2018-08-24T22:01:11.843Z,2.20
2018-08-24T22:03:39.015Z,3.50
2018-08-24T22:06:06.162Z,2.13
2018-08-24T22:08:33.328Z,2.83
2018-08-24T22:11:00.475Z,2.30
2018-08-24T22:13:27.655Z,2.20
2018-08-24T22:15:54.798Z,2.47
2018-08-24T22:18:21.983Z,2.20
2018-08-24T22:20:49.128Z,2.00
2018-08-24T22:23:16.296Z,2.33
2018-08-24T22:25:43.450Z,2.47
2018-08-24T22:28:10.594Z,2.10
2018-08-24T22:30:37.761Z,2.40
2018-08-24T22:33:04.908Z,2.20
2018-08-24T22:35:32.073Z,1.93
2018-08-24T22:37:59.227Z,2.10
2018-08-24T22:40:26.391Z,2.10
2018-08-24T22:42:53.539Z,2.43
2018-08-24T22:45:23.342Z,1.93
2018-08-24T22:47:50.756Z,2.60
2018-08-24T22:50:17.911Z,2.27
2018-08-24T22:52:45.063Z,2.60
2018-08-24T22:55:12.234Z,2.43
2018-08-24T22:57:39.389Z,1.87
2018-08-24T23:00:06.560Z,2.20
2018-08-24T23:02:33.735Z,2.00
2018-08-24T23:05:00.899Z,2.07
2018-08-24T23:07:28.053Z,2.10
2018-08-24T23:09:55.251Z,2.40
2018-08-24T23:12:22.394Z,2.00
2018-08-24T23:14:49.563Z,2.03
2018-08-24T23:17:16.990Z,1.60
2018-08-24T23:19:44.176Z,1.93
2018-08-24T23:22:11.412Z,1.50
2018-08-24T23:24:38.581Z,1.90
2018-08-24T23:27:05.727Z,1.73
2018-08-24T23:29:32.913Z,1.70
2018-08-24T23:32:00.078Z,1.50
2018-08-24T23:34:27.264Z,1.40
2018-08-24T23:36:54.411Z,1.60
2018-08-24T23:39:21.600Z,1.40
2018-08-24T23:41:48.743Z,1.40
2018-08-24T23:44:15.936Z,1.50
2018-08-24T23:46:43.091Z,1.57
2018-08-24T23:49:10.254Z,1.30
2018-08-24T23:51:37.402Z,1.23
2018-08-24T23:54:04.548Z,1.50
2018-08-24T23:56:31.715Z,1.57
2018-08-24T23:58:58.876Z,1.40
